Time;durP1;ratioP1;P1;durP2;ratioP2;P2;SDS_P1;SDS_P2;PMS_P1;PMS_P2;Temp;Humidity;BMP_temperature;BMP_pressure;BME280_temperature;BME280_humidity;BME280_pressure;Samples;Min_cycle;Max_cycle;Signal;HPM_P1;HPM_P2
2023/05/23 00:01:06;;;;;;;4.38;3.95;;;;;;;;;;5112018;28;20398;-63
2023/05/23 00:03:32;;;;;;;4.45;4.10;;;;;;;;;;5111324;28;20080;-60
2023/05/23 00:05:58;;;;;;;4.03;3.70;;;;;;;;;;5112681;28;20027;-60
2023/05/23 00:08:23;;;;;;;5.07;3.85;;;;;;;;;;5110956;28;20042;-60
2023/05/23 00:10:49;;;;;;;4.88;4.28;;;;;;;;;;5111178;28;20467;-62
2023/05/23 00:13:14;;;;;;;3.78;3.47;;;;;;;;;;5112225;28;20023;-63
2023/05/23 00:15:43;;;;;;;3.50;3.30;;;;;;;;;;5111929;28;20039;-63
2023/05/23 00:18:11;;;;;;;4.30;3.90;;;;;;;;;;5092971;28;20031;-63
2023/05/23 00:20:39;;;;;;;7.55;4.05;;;;;;;;;;5111236;28;20024;-63
2023/05/23 00:23:06;;;;;;;4.28;3.97;;;;;;;;;;5111212;28;20070;-63
2023/05/23 00:25:33;;;;;;;4.22;3.75;;;;;;;;;;5111357;28;20023;-62
2023/05/23 00:28:02;;;;;;;4.90;3.70;;;;;;;;;;5110048;28;20032;-63
2023/05/23 00:30:29;;;;;;;4.72;4.32;;;;;;;;;;5111372;28;20110;-63
2023/05/23 00:32:54;;;;;;;5.18;3.53;;;;;;;;;;5109471;28;20502;-63
2023/05/23 00:35:20;;;;;;;6.25;3.80;;;;;;;;;;5110604;28;20048;-63
2023/05/23 00:37:46;;;;;;;5.80;4.20;;;;;;;;;;5115180;28;20588;-62
2023/05/23 00:40:12;;;;;;;4.40;3.95;;;;;;;;;;5114838;28;20107;-62
2023/05/23 00:42:38;;;;;;;4.13;3.72;;;;;;;;;;5113219;28;20455;-62
2023/05/23 00:45:04;;;;;;;4.55;4.15;;;;;;;;;;5112890;28;20084;-62
2023/05/23 00:47:29;;;;;;;4.55;4.20;;;;;;;;;;5114829;28;20370;-62
2023/05/23 00:49:55;;;;;;;3.90;3.60;;;;;;;;;;5113609;28;20030;-62
2023/05/23 00:52:20;;;;;;;4.28;3.85;;;;;;;;;;5113633;28;20078;-62
2023/05/23 00:54:46;;;;;;;5.57;3.78;;;;;;;;;;5114924;28;20127;-62
2023/05/23 00:57:11;;;;;;;4.50;4.10;;;;;;;;;;5113169;28;20027;-62
2023/05/23 00:59:37;;;;;;;5.00;3.85;;;;;;;;;;5112726;28;20032;-62
2023/05/23 01:02:03;;;;;;;4.07;3.60;;;;;;;;;;5113248;28;20040;-62
2023/05/23 01:04:28;;;;;;;5.00;4.00;;;;;;;;;;5112686;28;20035;-63
2023/05/23 01:06:54;;;;;;;5.10;3.63;;;;;;;;;;5114929;28;20038;-63
2023/05/23 01:09:21;;;;;;;5.93;3.47;;;;;;;;;;5115390;28;20387;-61
2023/05/23 01:11:47;;;;;;;4.18;3.70;;;;;;;;;;5115080;28;20027;-62
2023/05/23 01:14:17;;;;;;;5.25;3.80;;;;;;;;;;5112876;28;20390;-63
2023/05/23 01:16:47;;;;;;;3.72;3.47;;;;;;;;;;5113747;28;20046;-63
2023/05/23 01:19:14;;;;;;;6.32;3.80;;;;;;;;;;5114414;28;20031;-63
2023/05/23 01:21:40;;;;;;;4.50;3.60;;;;;;;;;;5113659;28;20386;-63
2023/05/23 01:24:16;;;;;;;4.40;3.80;;;;;;;;;;5114884;28;20035;-64
2023/05/23 01:27:02;;;;;;;4.32;3.58;;;;;;;;;;5111783;28;20110;-64
2023/05/23 01:29:30;;;;;;;3.90;3.50;;;;;;;;;;5096167;28;20042;-64
2023/05/23 01:32:06;;;;;;;4.65;3.95;;;;;;;;;;5114708;28;20094;-64
2023/05/23 01:34:32;;;;;;;5.55;3.97;;;;;;;;;;5114899;28;20031;-64
2023/05/23 01:36:57;;;;;;;6.65;4.13;;;;;;;;;;5113049;28;20036;-64
2023/05/23 01:39:24;;;;;;;4.50;3.85;;;;;;;;;;5114770;28;20031;-63
2023/05/23 01:41:51;;;;;;;4.25;3.78;;;;;;;;;;5113707;28;20032;-64
2023/05/23 01:44:17;;;;;;;4.63;3.92;;;;;;;;;;5115620;28;20031;-64
2023/05/23 01:46:45;;;;;;;6.07;3.67;;;;;;;;;;5114902;28;20035;-63
2023/05/23 01:49:11;;;;;;;4.90;3.90;;;;;;;;;;5112423;28;20106;-63
2023/05/23 01:51:37;;;;;;;6.07;3.88;;;;;;;;;;5112804;28;20701;-63
2023/05/23 01:54:03;;;;;;;4.18;3.78;;;;;;;;;;5115629;27;20119;-63
2023/05/23 01:56:29;;;;;;;5.40;4.28;;;;;;;;;;5134715;27;20539;-62
2023/05/23 01:58:54;;;;;;;4.15;3.83;;;;;;;;;;5115274;27;20031;-62
2023/05/23 02:01:20;;;;;;;5.38;3.92;;;;;;;;;;5098465;27;20504;-63
2023/05/23 02:03:48;;;;;;;4.07;3.65;;;;;;;;;;5116430;27;20027;-63
2023/05/23 02:06:13;;;;;;;4.43;4.03;;;;;;;;;;5133619;27;20062;-63
2023/05/23 02:08:38;;;;;;;6.13;3.55;;;;;;;;;;5133447;27;20039;-62
2023/05/23 02:11:04;;;;;;;4.07;3.75;;;;;;;;;;5133485;27;20636;-63
2023/05/23 02:13:30;;;;;;;4.70;4.28;;;;;;;;;;5115442;27;20408;-64
2023/05/23 02:15:55;;;;;;;4.15;3.55;;;;;;;;;;5134657;27;20510;-64
2023/05/23 02:18:21;;;;;;;3.63;3.40;;;;;;;;;;5115591;27;20051;-64
2023/05/23 02:20:49;;;;;;;4.05;3.65;;;;;;;;;;5114811;27;20531;-63
2023/05/23 02:23:14;;;;;;;4.90;3.70;;;;;;;;;;5132808;27;20039;-63
2023/05/23 02:25:40;;;;;;;4.25;3.90;;;;;;;;;;5132345;27;20042;-63
2023/05/23 02:28:05;;;;;;;6.18;3.55;;;;;;;;;;5132690;27;20114;-63
2023/05/23 02:30:31;;;;;;;5.07;4.10;;;;;;;;;;5114486;27;20031;-63
2023/05/23 02:32:57;;;;;;;5.53;3.85;;;;;;;;;;5132929;27;20019;-63
2023/05/23 02:35:23;;;;;;;4.13;3.78;;;;;;;;;;5113595;27;20045;-63
2023/05/23 02:37:48;;;;;;;5.10;3.88;;;;;;;;;;5096712;27;20023;-63
2023/05/23 02:40:14;;;;;;;5.78;3.50;;;;;;;;;;5112787;27;20046;-62
2023/05/23 02:42:39;;;;;;;3.03;2.92;;;;;;;;;;5113711;27;20111;-62
2023/05/23 02:45:05;;;;;;;3.70;3.17;;;;;;;;;;5113902;27;20069;-62
2023/05/23 02:47:31;;;;;;;3.15;2.95;;;;;;;;;;5113845;27;20054;-62
2023/05/23 02:49:56;;;;;;;3.70;3.15;;;;;;;;;;5096699;27;20034;-62
2023/05/23 02:52:23;;;;;;;3.95;3.17;;;;;;;;;;5113898;27;20034;-62
2023/05/23 02:54:52;;;;;;;9.73;3.05;;;;;;;;;;5113872;27;20057;-61
2023/05/23 02:57:17;;;;;;;3.03;2.72;;;;;;;;;;5115110;27;20042;-63
2023/05/23 02:59:43;;;;;;;2.90;2.70;;;;;;;;;;5116524;27;20031;-63
2023/05/23 03:02:08;;;;;;;4.75;2.90;;;;;;;;;;5116105;27;20019;-62
2023/05/23 03:04:34;;;;;;;3.55;3.08;;;;;;;;;;5114975;27;20030;-62
2023/05/23 03:06:59;;;;;;;3.95;3.08;;;;;;;;;;5115032;27;20470;-62
2023/05/23 03:09:27;;;;;;;3.08;2.88;;;;;;;;;;5115273;27;20515;-62
2023/05/23 03:11:52;;;;;;;3.70;3.25;;;;;;;;;;5114700;27;20474;-62
2023/05/23 03:14:19;;;;;;;3.25;2.95;;;;;;;;;;5133161;27;20118;-62
2023/05/23 03:16:44;;;;;;;3.97;3.25;;;;;;;;;;5115036;27;20125;-62
2023/05/23 03:19:09;;;;;;;3.70;3.40;;;;;;;;;;5113741;28;20130;-63
2023/05/23 03:21:38;;;;;;;4.53;3.53;;;;;;;;;;5114166;27;20348;-62
2023/05/23 03:24:05;;;;;;;4.10;3.70;;;;;;;;;;5096625;27;20068;-63
2023/05/23 03:26:30;;;;;;;3.28;2.97;;;;;;;;;;5114251;28;20110;-63
2023/05/23 03:28:58;;;;;;;3.83;3.42;;;;;;;;;;5114865;27;20554;-63
2023/05/23 03:31:23;;;;;;;3.45;3.10;;;;;;;;;;5114092;28;20110;-63
2023/05/23 03:33:49;;;;;;;4.93;3.47;;;;;;;;;;5113688;27;20118;-62
2023/05/23 03:36:15;;;;;;;5.55;3.22;;;;;;;;;;5096495;28;20482;-62
2023/05/23 03:38:40;;;;;;;3.20;2.97;;;;;;;;;;5113917;28;20045;-62
2023/05/23 03:41:06;;;;;;;4.28;3.08;;;;;;;;;;5114078;28;20019;-62
2023/05/23 03:43:31;;;;;;;6.40;3.28;;;;;;;;;;5113753;28;20027;-62
2023/05/23 03:45:57;;;;;;;3.80;3.47;;;;;;;;;;5113252;28;20423;-62
2023/05/23 03:48:24;;;;;;;3.53;3.22;;;;;;;;;;5132597;28;20031;-62
2023/05/23 03:50:50;;;;;;;18.42;4.60;;;;;;;;;;5114065;28;20023;-62
2023/05/23 03:53:15;;;;;;;4.30;3.83;;;;;;;;;;5114166;28;20485;-61
2023/05/23 03:55:41;;;;;;;4.32;3.55;;;;;;;;;;5129792;28;20494;-61
2023/05/23 03:58:06;;;;;;;3.78;3.45;;;;;;;;;;5131598;28;20432;-62
2023/05/23 04:00:32;;;;;;;5.03;3.33;;;;;;;;;;5112284;28;20478;-62
2023/05/23 04:02:58;;;;;;;4.03;3.65;;;;;;;;;;5113118;28;20383;-62
2023/05/23 04:05:24;;;;;;;5.55;3.50;;;;;;;;;;5112779;28;20034;-62
2023/05/23 04:07:50;;;;;;;5.25;3.40;;;;;;;;;;5113959;28;20038;-62
2023/05/23 04:10:17;;;;;;;3.72;3.20;;;;;;;;;;5114004;27;20118;-62
2023/05/23 04:12:42;;;;;;;4.43;3.50;;;;;;;;;;5099490;27;20015;-62
2023/05/23 04:15:12;;;;;;;7.33;3.90;;;;;;;;;;5117276;27;20030;-62
2023/05/23 04:17:48;;;;;;;2.80;2.63;;;;;;;;;;5116778;27;20032;-62
2023/05/23 04:20:15;;;;;;;3.55;2.97;;;;;;;;;;5117348;27;20031;-62
2023/05/23 04:22:42;;;;;;;4.38;3.97;;;;;;;;;;5116394;27;20064;-59
2023/05/23 04:25:17;;;;;;;4.07;3.10;;;;;;;;;;5116957;27;20053;-59
2023/05/23 04:27:48;;;;;;;6.45;3.42;;;;;;;;;;5116599;27;20042;-59
2023/05/23 04:30:16;;;;;;;3.80;3.50;;;;;;;;;;5127386;27;20030;-59
2023/05/23 04:32:42;;;;;;;4.57;3.88;;;;;;;;;;5134176;27;20071;-59
2023/05/23 04:35:09;;;;;;;3.92;3.40;;;;;;;;;;5118377;27;20027;-59
2023/05/23 04:37:38;;;;;;;3.85;3.55;;;;;;;;;;5133215;27;20027;-59
2023/05/23 04:40:04;;;;;;;4.43;3.05;;;;;;;;;;5116002;27;20023;-59
2023/05/23 04:42:43;;;;;;;3.42;3.20;;;;;;;;;;5133235;27;20019;-60
2023/05/23 04:45:22;;;;;;;4.35;3.92;;;;;;;;;;5134215;27;20418;-60
2023/05/23 04:48:07;;;;;;;4.15;3.85;;;;;;;;;;5134087;27;20034;-60
2023/05/23 04:50:39;;;;;;;4.10;3.70;;;;;;;;;;5133125;27;20031;-60
2023/05/23 04:53:04;;;;;;;3.58;3.28;;;;;;;;;;5122639;27;21008;-60
2023/05/23 04:55:31;;;;;;;3.97;3.65;;;;;;;;;;5132675;27;20224;-60
2023/05/23 04:57:56;;;;;;;5.40;3.58;;;;;;;;;;5113735;27;20071;-59
2023/05/23 05:00:22;;;;;;;4.07;3.55;;;;;;;;;;5113322;27;20065;-59
2023/05/23 05:02:47;;;;;;;4.45;4.05;;;;;;;;;;5111293;27;20743;-61
2023/05/23 05:05:13;;;;;;;4.43;4.03;;;;;;;;;;5149803;27;20074;-62
2023/05/23 05:07:42;;;;;;;4.88;3.80;;;;;;;;;;5122307;27;20087;-71
2023/05/23 05:10:15;;;;;;;4.72;4.00;;;;;;;;;;5096141;27;20091;-70
2023/05/23 05:12:45;;;;;;;3.97;3.67;;;;;;;;;;5114056;27;20084;-62
2023/05/23 05:15:11;;;;;;;4.47;4.03;;;;;;;;;;5114065;27;20071;-64
2023/05/23 05:17:38;;;;;;;4.40;4.00;;;;;;;;;;5097420;27;20031;-63
2023/05/23 05:20:07;;;;;;;3.88;3.58;;;;;;;;;;5108579;27;20034;-65
2023/05/23 05:22:35;;;;;;;5.00;3.95;;;;;;;;;;5106036;27;20035;-62
2023/05/23 05:25:02;;;;;;;5.82;3.97;;;;;;;;;;5110300;27;20080;-62
2023/05/23 05:27:28;;;;;;;4.78;4.03;;;;;;;;;;5113390;27;20739;-62
2023/05/23 05:29:58;;;;;;;5.03;3.85;;;;;;;;;;5114926;27;20019;-61
2023/05/23 05:32:24;;;;;;;4.65;4.25;;;;;;;;;;5114803;27;20031;-61
2023/05/23 05:34:49;;;;;;;5.30;4.45;;;;;;;;;;5133853;27;20039;-62
2023/05/23 05:37:16;;;;;;;4.90;4.10;;;;;;;;;;5114940;27;20033;-62
2023/05/23 05:39:42;;;;;;;5.20;3.60;;;;;;;;;;5115004;27;20030;-62
2023/05/23 05:42:07;;;;;;;5.53;3.85;;;;;;;;;;5114609;27;20037;-61
2023/05/23 05:44:36;;;;;;;6.72;4.10;;;;;;;;;;5112000;27;20477;-61
2023/05/23 05:47:01;;;;;;;4.60;4.20;;;;;;;;;;5133168;27;20026;-62
2023/05/23 05:49:28;;;;;;;4.47;3.95;;;;;;;;;;5135447;27;20041;-62
2023/05/23 05:51:56;;;;;;;4.78;3.90;;;;;;;;;;5129997;27;20080;-62
2023/05/23 05:54:23;;;;;;;4.30;3.97;;;;;;;;;;5113638;27;20379;-66
2023/05/23 05:56:48;;;;;;;4.10;3.70;;;;;;;;;;5098056;27;20076;-66
2023/05/23 05:59:15;;;;;;;4.22;3.92;;;;;;;;;;5114620;27;20027;-66
2023/05/23 06:01:40;;;;;;;3.92;3.58;;;;;;;;;;5134065;27;20038;-66
2023/05/23 06:04:05;;;;;;;5.28;3.58;;;;;;;;;;5114086;27;20553;-66
2023/05/23 06:06:31;;;;;;;5.13;3.90;;;;;;;;;;5113519;27;20026;-66
2023/05/23 06:08:56;;;;;;;4.05;3.60;;;;;;;;;;5113982;27;20031;-66
2023/05/23 06:11:22;;;;;;;4.38;3.72;;;;;;;;;;5112990;27;20027;-66
2023/05/23 06:13:48;;;;;;;6.28;4.10;;;;;;;;;;5112435;27;20069;-66
2023/05/23 06:16:14;;;;;;;4.20;3.75;;;;;;;;;;5111406;27;20474;-66
2023/05/23 06:18:40;;;;;;;3.97;3.67;;;;;;;;;;5111813;27;20034;-66
2023/05/23 06:21:06;;;;;;;6.05;4.00;;;;;;;;;;5111789;27;20023;-66
2023/05/23 06:23:33;;;;;;;4.30;3.63;;;;;;;;;;5095180;27;20068;-67
2023/05/23 06:25:59;;;;;;;4.43;3.50;;;;;;;;;;5095236;27;20397;-67
2023/05/23 06:28:24;;;;;;;4.85;4.35;;;;;;;;;;5113427;27;20427;-67
2023/05/23 06:30:50;;;;;;;5.00;4.05;;;;;;;;;;5096312;27;20023;-67
2023/05/23 06:33:15;;;;;;;4.50;3.42;;;;;;;;;;5132031;27;20020;-67
2023/05/23 06:35:41;;;;;;;4.90;3.75;;;;;;;;;;5132175;27;20394;-67
2023/05/23 06:38:07;;;;;;;5.43;3.72;;;;;;;;;;5115315;27;20114;-66
2023/05/23 06:40:32;;;;;;;5.82;3.97;;;;;;;;;;5132215;27;20041;-67
2023/05/23 06:42:58;;;;;;;6.68;4.20;;;;;;;;;;5114132;27;20393;-67
2023/05/23 06:45:33;;;;;;;4.93;3.47;;;;;;;;;;5114223;27;20050;-67
2023/05/23 06:48:00;;;;;;;3.90;3.53;;;;;;;;;;5113274;27;20050;-67
2023/05/23 06:50:25;;;;;;;4.10;3.80;;;;;;;;;;5114875;27;20054;-67
2023/05/23 06:52:51;;;;;;;4.30;3.42;;;;;;;;;;5114117;27;20042;-67
2023/05/23 06:55:18;;;;;;;3.85;3.55;;;;;;;;;;5112960;27;20061;-66
2023/05/23 06:57:45;;;;;;;5.78;3.80;;;;;;;;;;5113041;27;20114;-67
2023/05/23 07:00:12;;;;;;;5.18;3.80;;;;;;;;;;5112855;27;20054;-67
2023/05/23 07:02:49;;;;;;;3.80;3.50;;;;;;;;;;5112724;27;20033;-67
2023/05/23 07:05:18;;;;;;;4.55;3.50;;;;;;;;;;5112725;27;20031;-66
2023/05/23 07:07:46;;;;;;;4.15;3.75;;;;;;;;;;5112775;27;20474;-67
2023/05/23 07:10:11;;;;;;;4.13;3.72;;;;;;;;;;5112719;27;20027;-67
2023/05/23 07:12:37;;;;;;;5.22;3.40;;;;;;;;;;5112524;27;20027;-67
2023/05/23 07:15:03;;;;;;;4.10;3.53;;;;;;;;;;5096472;27;20072;-67
2023/05/23 07:17:29;;;;;;;4.03;3.53;;;;;;;;;;5113297;27;20443;-62
2023/05/23 07:19:55;;;;;;;3.55;3.22;;;;;;;;;;5130612;27;20026;-66
2023/05/23 07:22:21;;;;;;;3.38;3.08;;;;;;;;;;5112508;27;20465;-62
2023/05/23 07:24:46;;;;;;;6.90;3.60;;;;;;;;;;5113709;27;20122;-66
2023/05/23 07:27:12;;;;;;;4.28;3.40;;;;;;;;;;5099291;28;20065;-67
2023/05/23 07:29:38;;;;;;;4.28;3.13;;;;;;;;;;5099241;27;20523;-67
2023/05/23 07:32:06;;;;;;;4.05;3.35;;;;;;;;;;5116054;28;20031;-67
2023/05/23 07:34:32;;;;;;;4.35;3.45;;;;;;;;;;5098946;27;20057;-67
2023/05/23 07:37:00;;;;;;;3.75;3.15;;;;;;;;;;5099222;28;20058;-67
2023/05/23 07:39:29;;;;;;;4.68;3.38;;;;;;;;;;5115731;28;20073;-67
2023/05/23 07:41:56;;;;;;;4.88;3.50;;;;;;;;;;5115790;28;20027;-67
2023/05/23 07:44:22;;;;;;;5.57;3.22;;;;;;;;;;5115635;28;20114;-67
2023/05/23 07:46:47;;;;;;;3.45;3.15;;;;;;;;;;5118376;27;20084;-67
2023/05/23 07:49:13;;;;;;;3.67;2.90;;;;;;;;;;5120010;27;20016;-67
2023/05/23 07:51:38;;;;;;;3.42;3.13;;;;;;;;;;5119880;27;20034;-67
2023/05/23 07:54:04;;;;;;;3.95;2.97;;;;;;;;;;5119637;27;20015;-67
2023/05/23 07:56:30;;;;;;;4.05;3.45;;;;;;;;;;5103030;27;20023;-67
2023/05/23 07:58:55;;;;;;;3.35;3.05;;;;;;;;;;5102901;27;20125;-67
2023/05/23 08:01:23;;;;;;;4.15;2.80;;;;;;;;;;5119995;27;20030;-67
2023/05/23 08:03:57;;;;;;;4.80;3.00;;;;;;;;;;5138084;27;20038;-67
2023/05/23 08:06:46;;;;;;;6.63;3.15;;;;;;;;;;5122291;27;20035;-67
2023/05/23 08:09:11;;;;;;;4.22;3.25;;;;;;;;;;5119579;27;20123;-67
2023/05/23 08:11:41;;;;;;;3.13;2.90;;;;;;;;;;5119602;27;20401;-67
2023/05/23 08:14:06;;;;;;;4.30;3.35;;;;;;;;;;5119471;27;20118;-67
2023/05/23 08:16:35;;;;;;;4.63;3.45;;;;;;;;;;5137902;27;20402;-67
2023/05/23 08:19:01;;;;;;;3.13;2.83;;;;;;;;;;5102890;27;20031;-67
2023/05/23 08:21:27;;;;;;;3.75;3.40;;;;;;;;;;5119451;27;20066;-67
2023/05/23 08:23:52;;;;;;;7.53;3.60;;;;;;;;;;5102323;27;20051;-67
2023/05/23 08:26:18;;;;;;;8.15;3.53;;;;;;;;;;5119358;27;20475;-67
2023/05/23 08:28:45;;;;;;;5.10;3.78;;;;;;;;;;5119318;27;20027;-67
2023/05/23 08:31:10;;;;;;;3.10;2.83;;;;;;;;;;5119211;27;20118;-67
2023/05/23 08:33:36;;;;;;;5.50;3.28;;;;;;;;;;5119222;27;20107;-67
2023/05/23 08:36:01;;;;;;;4.45;2.67;;;;;;;;;;5102366;27;20059;-67
2023/05/23 08:38:26;;;;;;;3.05;2.80;;;;;;;;;;5119052;27;20062;-67
2023/05/23 08:41:01;;;;;;;3.67;3.03;;;;;;;;;;5119131;27;20079;-67
2023/05/23 08:43:28;;;;;;;2.88;2.65;;;;;;;;;;5118971;27;20023;-67
2023/05/23 08:45:54;;;;;;;3.33;2.78;;;;;;;;;;5137355;27;20038;-67
2023/05/23 08:48:25;;;;;;;5.18;3.42;;;;;;;;;;5118969;27;20019;-67
2023/05/23 08:50:51;;;;;;;6.18;3.05;;;;;;;;;;5118893;27;20023;-67
2023/05/23 08:53:19;;;;;;;3.30;3.00;;;;;;;;;;5118924;27;20015;-67
2023/05/23 08:55:50;;;;;;;4.95;3.10;;;;;;;;;;5115284;28;20052;-67
2023/05/23 08:58:19;;;;;;;3.28;2.90;;;;;;;;;;5115130;28;20492;-67
2023/05/23 09:00:51;;;;;;;4.50;2.95;;;;;;;;;;5099021;28;20031;-67
2023/05/23 09:03:17;;;;;;;4.72;2.78;;;;;;;;;;5115224;28;20040;-67
2023/05/23 09:05:58;;;;;;;4.07;2.55;;;;;;;;;;5100426;28;20424;-67
2023/05/23 09:08:26;;;;;;;3.33;3.03;;;;;;;;;;5098154;28;20034;-67
2023/05/23 09:10:56;;;;;;;2.88;2.67;;;;;;;;;;5115196;28;20425;-67
2023/05/23 09:13:24;;;;;;;2.75;2.53;;;;;;;;;;5115015;28;20032;-67
2023/05/23 09:15:51;;;;;;;;;;;;;;;;;;5115620;28;20043;-67
2023/05/23 09:18:17;;;;;;;4.38;3.10;;;;;;;;;;5114930;28;19908;-62
2023/05/23 09:20:44;;;;;;;3.35;2.95;;;;;;;;;;5116124;28;20032;-67
2023/05/23 09:23:12;;;;;;;6.15;3.50;;;;;;;;;;5114896;28;20028;-67
2023/05/23 09:25:44;;;;;;;3.40;2.72;;;;;;;;;;5114705;28;20458;-67
2023/05/23 09:28:10;;;;;;;3.00;2.80;;;;;;;;;;5115998;28;20135;-62
2023/05/23 09:30:37;;;;;;;7.53;2.80;;;;;;;;;;5114667;28;20487;-62
2023/05/23 09:33:04;;;;;;;2.20;2.00;;;;;;;;;;5114943;28;20034;-62
2023/05/23 09:35:29;;;;;;;10.35;3.20;;;;;;;;;;5114542;28;20039;-62
2023/05/23 09:37:57;;;;;;;7.43;3.17;;;;;;;;;;5115841;27;20039;-62
2023/05/23 09:40:28;;;;;;;3.35;3.10;;;;;;;;;;5114445;28;20027;-62
2023/05/23 09:43:02;;;;;;;3.13;2.92;;;;;;;;;;5115695;28;20036;-62
2023/05/23 09:45:31;;;;;;;5.10;3.05;;;;;;;;;;5114393;28;20041;-62
2023/05/23 09:47:59;;;;;;;3.42;3.08;;;;;;;;;;5114314;28;20030;-62
2023/05/23 09:50:30;;;;;;;4.72;3.15;;;;;;;;;;5097303;28;20114;-63
2023/05/23 09:52:56;;;;;;;2.90;2.70;;;;;;;;;;5115517;28;20027;-62
2023/05/23 09:55:21;;;;;;;3.72;3.00;;;;;;;;;;5128250;27;20511;-62
2023/05/23 09:57:48;;;;;;;3.50;2.60;;;;;;;;;;5135915;27;20027;-62
2023/05/23 10:00:14;;;;;;;3.97;2.80;;;;;;;;;;5117534;27;20404;-62
2023/05/23 10:02:58;;;;;;;3.53;2.40;;;;;;;;;;5117805;27;20035;-62
2023/05/23 10:05:30;;;;;;;7.57;2.92;;;;;;;;;;5135686;27;20113;-62
2023/05/23 10:07:58;;;;;;;6.13;2.97;;;;;;;;;;5135722;27;20534;-62
2023/05/23 10:10:24;;;;;;;3.25;2.95;;;;;;;;;;5135130;27;20466;-62
2023/05/23 10:12:53;;;;;;;2.53;2.33;;;;;;;;;;5135672;27;20040;-62
2023/05/23 10:15:18;;;;;;;2.92;2.42;;;;;;;;;;5135598;27;20034;-62
2023/05/23 10:17:59;;;;;;;6.88;3.30;;;;;;;;;;5117213;27;20475;-62
2023/05/23 10:20:25;;;;;;;5.95;2.58;;;;;;;;;;5135450;27;20450;-62
2023/05/23 10:22:51;;;;;;;4.78;3.20;;;;;;;;;;5135445;27;20110;-62
2023/05/23 10:25:16;;;;;;;4.82;3.13;;;;;;;;;;5135336;27;20114;-62
2023/05/23 10:27:42;;;;;;;4.47;3.00;;;;;;;;;;5135369;27;20069;-62
2023/05/23 10:30:07;;;;;;;4.85;2.80;;;;;;;;;;5117032;27;20114;-62
2023/05/23 10:32:33;;;;;;;3.85;2.90;;;;;;;;;;5135289;27;20027;-63
2023/05/23 10:35:03;;;;;;;4.20;3.03;;;;;;;;;;5116888;27;20039;-62
2023/05/23 10:37:32;;;;;;;4.13;3.25;;;;;;;;;;5117067;27;20042;-62
2023/05/23 10:40:14;;;;;;;3.10;2.90;;;;;;;;;;5116882;27;20023;-62
2023/05/23 10:42:51;;;;;;;3.83;3.38;;;;;;;;;;5135109;27;20534;-62
2023/05/23 10:45:17;;;;;;;3.40;3.10;;;;;;;;;;5134968;27;20031;-62
2023/05/23 10:47:43;;;;;;;4.35;3.00;;;;;;;;;;5134954;27;20030;-62
2023/05/23 10:50:13;;;;;;;3.30;2.80;;;;;;;;;;5116710;27;20035;-62
2023/05/23 10:52:39;;;;;;;2.70;2.50;;;;;;;;;;5134941;27;20109;-62
2023/05/23 10:55:11;;;;;;;3.35;3.05;;;;;;;;;;5134784;27;20143;-62
2023/05/23 10:57:37;;;;;;;3.97;3.17;;;;;;;;;;5116572;27;20027;-62
2023/05/23 11:00:03;;;;;;;3.90;3.30;;;;;;;;;;5134745;27;20451;-62
2023/05/23 11:02:28;;;;;;;5.05;4.40;;;;;;;;;;5134764;27;20367;-62
2023/05/23 11:05:12;;;;;;;3.33;3.13;;;;;;;;;;5134611;27;20038;-62
2023/05/23 11:07:39;;;;;;;4.85;3.20;;;;;;;;;;5134625;27;20020;-62
2023/05/23 11:10:09;;;;;;;3.60;2.90;;;;;;;;;;5134634;27;20423;-62
2023/05/23 11:12:38;;;;;;;3.23;2.93;;;;;;;;;;5134620;27;20072;-62
2023/05/23 11:15:16;;;;;;;4.82;2.80;;;;;;;;;;5116123;27;20275;-62
2023/05/23 11:17:49;;;;;;;5.68;3.10;;;;;;;;;;5116164;27;20042;-62
2023/05/23 11:20:17;;;;;;;2.90;2.70;;;;;;;;;;5134605;27;20027;-62
2023/05/23 11:22:52;;;;;;;3.20;2.90;;;;;;;;;;5115964;27;20030;-62
2023/05/23 11:25:19;;;;;;;4.78;3.30;;;;;;;;;;5134337;27;20027;-62
2023/05/23 11:27:45;;;;;;;6.38;3.30;;;;;;;;;;5134330;27;20027;-62
2023/05/23 11:30:15;;;;;;;6.32;3.30;;;;;;;;;;5134398;27;20027;-62
2023/05/23 11:32:41;;;;;;;3.58;3.28;;;;;;;;;;5134455;27;20080;-66
2023/05/23 11:35:07;;;;;;;4.15;3.00;;;;;;;;;;5116010;27;20031;-67
2023/05/23 11:37:33;;;;;;;3.22;2.90;;;;;;;;;;5134261;27;20034;-67
2023/05/23 11:39:58;;;;;;;6.10;3.30;;;;;;;;;;5134437;27;20381;-67
2023/05/23 11:42:24;;;;;;;3.67;3.15;;;;;;;;;;5134270;28;20039;-62
2023/05/23 11:44:52;;;;;;;3.53;3.22;;;;;;;;;;5134103;28;20020;-62
2023/05/23 11:47:18;;;;;;;4.35;3.10;;;;;;;;;;5134226;28;20028;-62
2023/05/23 11:49:45;;;;;;;3.92;3.20;;;;;;;;;;5134116;28;20063;-66
2023/05/23 11:52:11;;;;;;;5.07;3.08;;;;;;;;;;5115846;28;20566;-62
2023/05/23 11:54:38;;;;;;;3.20;2.65;;;;;;;;;;5133972;28;20088;-66
2023/05/23 11:57:04;;;;;;;3.35;3.05;;;;;;;;;;5134306;28;20039;-66
2023/05/23 11:59:30;;;;;;;6.70;3.20;;;;;;;;;;5134263;28;20039;-66
2023/05/23 12:01:55;;;;;;;3.20;2.88;;;;;;;;;;5134229;28;20020;-66
2023/05/23 12:04:21;;;;;;;3.30;3.00;;;;;;;;;;5134003;28;20497;-67
2023/05/23 12:06:50;;;;;;;4.53;3.15;;;;;;;;;;5115640;28;20031;-67
2023/05/23 12:09:15;;;;;;;4.93;3.33;;;;;;;;;;5115635;28;20070;-67
2023/05/23 12:11:41;;;;;;;3.58;2.95;;;;;;;;;;5133940;28;20077;-67
2023/05/23 12:14:07;;;;;;;3.50;3.20;;;;;;;;;;5133934;28;20027;-67
2023/05/23 12:16:33;;;;;;;3.30;2.83;;;;;;;;;;5133904;28;20026;-67
2023/05/23 12:18:59;;;;;;;3.50;3.20;;;;;;;;;;5115379;28;20019;-67
2023/05/23 12:21:26;;;;;;;6.93;3.50;;;;;;;;;;5133777;28;20031;-67
2023/05/23 12:23:51;;;;;;;3.50;3.20;;;;;;;;;;5133777;28;20110;-66
2023/05/23 12:26:17;;;;;;;3.63;3.40;;;;;;;;;;5115435;28;20118;-66
2023/05/23 12:28:45;;;;;;;3.88;3.13;;;;;;;;;;5133666;28;20072;-66
2023/05/23 12:31:20;;;;;;;3.78;2.95;;;;;;;;;;5133784;27;20056;-66
2023/05/23 12:33:46;;;;;;;3.53;2.85;;;;;;;;;;5119084;27;20027;-67
2023/05/23 12:36:12;;;;;;;2.80;2.65;;;;;;;;;;5119232;27;20041;-67
2023/05/23 12:38:39;;;;;;;4.72;3.28;;;;;;;;;;5137553;27;20058;-67
2023/05/23 12:41:08;;;;;;;3.30;3.00;;;;;;;;;;5097239;22;20053;-66
2023/05/23 12:43:36;;;;;;;3.25;2.83;;;;;;;;;;5076217;28;20028;-66
2023/05/23 12:46:01;;;;;;;3.90;2.70;;;;;;;;;;5076080;28;20047;-67
2023/05/23 12:48:26;;;;;;;3.65;3.22;;;;;;;;;;5076028;28;20020;-67
2023/05/23 12:50:52;;;;;;;3.55;3.17;;;;;;;;;;5076205;28;20564;-67
2023/05/23 12:53:17;;;;;;;5.68;3.17;;;;;;;;;;5109006;28;20029;-67
2023/05/23 12:55:42;;;;;;;5.95;2.83;;;;;;;;;;5076299;28;20464;-67
2023/05/23 12:58:08;;;;;;;2.95;2.75;;;;;;;;;;5109025;28;20036;-67
2023/05/23 13:00:33;;;;;;;3.58;2.92;;;;;;;;;;5076482;28;20020;-67
2023/05/23 13:02:58;;;;;;;3.53;3.28;;;;;;;;;;5108819;28;20438;-67
2023/05/23 13:05:23;;;;;;;4.30;3.20;;;;;;;;;;5076325;28;20468;-67
2023/05/23 13:07:49;;;;;;;3.40;3.08;;;;;;;;;;5076113;28;20599;-67
2023/05/23 13:10:14;;;;;;;4.13;3.17;;;;;;;;;;5076077;28;20013;-67
2023/05/23 13:12:39;;;;;;;3.13;2.92;;;;;;;;;;5076322;28;20460;-67
2023/05/23 13:15:05;;;;;;;3.30;3.00;;;;;;;;;;5074763;28;20468;-67
2023/05/23 13:17:30;;;;;;;3.42;3.08;;;;;;;;;;5076228;28;20059;-67
2023/05/23 13:19:56;;;;;;;5.53;3.20;;;;;;;;;;5076095;28;20075;-67
2023/05/23 13:22:21;;;;;;;3.53;3.28;;;;;;;;;;5075850;28;20048;-66
2023/05/23 13:24:46;;;;;;;4.55;3.30;;;;;;;;;;5075372;28;20028;-66
2023/05/23 13:27:12;;;;;;;4.78;3.25;;;;;;;;;;5088020;28;20028;-67
2023/05/23 13:29:37;;;;;;;3.75;3.55;;;;;;;;;;5076927;28;20036;-66
2023/05/23 13:32:02;;;;;;;2.90;2.75;;;;;;;;;;5076470;28;20032;-67
2023/05/23 13:34:28;;;;;;;4.85;3.35;;;;;;;;;;5094794;28;20039;-67
2023/05/23 13:36:53;;;;;;;3.20;3.00;;;;;;;;;;5076127;28;20040;-67
2023/05/23 13:39:21;;;;;;;5.55;3.30;;;;;;;;;;5093580;28;20024;-68
2023/05/23 13:41:47;;;;;;;4.05;3.47;;;;;;;;;;5075652;28;20054;-63
2023/05/23 13:44:20;;;;;;;3.55;3.20;;;;;;;;;;5092818;28;20036;-62
2023/05/23 13:46:45;;;;;;;3.55;3.10;;;;;;;;;;5093839;28;20514;-62
2023/05/23 13:49:11;;;;;;;3.47;3.17;;;;;;;;;;5093420;28;20059;-62
2023/05/23 13:51:36;;;;;;;6.43;4.57;;;;;;;;;;5092951;28;20039;-62
2023/05/23 13:54:03;;;;;;;7.60;4.30;;;;;;;;;;5092206;28;20035;-61
2023/05/23 13:56:29;;;;;;;9.32;4.07;;;;;;;;;;5093124;28;20078;-62
2023/05/23 13:58:54;;;;;;;7.65;4.25;;;;;;;;;;5093517;28;20460;-61
2023/05/23 14:01:19;;;;;;;7.35;3.92;;;;;;;;;;5090095;28;20057;-61
2023/05/23 14:03:46;;;;;;;6.60;4.60;;;;;;;;;;5089031;28;20028;-61
2023/05/23 14:06:11;;;;;;;6.30;4.22;;;;;;;;;;5092385;28;20866;-61
2023/05/23 14:08:36;;;;;;;5.00;4.50;;;;;;;;;;5091141;28;20036;-61
2023/05/23 14:11:01;;;;;;;7.70;4.65;;;;;;;;;;5089500;28;20032;-61
2023/05/23 14:13:27;;;;;;;8.15;4.50;;;;;;;;;;5089245;28;20581;-61
2023/05/23 14:15:52;;;;;;;10.05;4.00;;;;;;;;;;5070327;28;20042;-61
2023/05/23 14:18:18;;;;;;;5.75;4.43;;;;;;;;;;5071305;28;20061;-61
2023/05/23 14:20:43;;;;;;;5.90;4.32;;;;;;;;;;5088731;28;20125;-61
2023/05/23 14:23:09;;;;;;;4.82;4.43;;;;;;;;;;5088939;28;20048;-61
2023/05/23 14:25:34;;;;;;;7.90;5.03;;;;;;;;;;5070583;28;20071;-61
2023/05/23 14:28:00;;;;;;;5.20;4.50;;;;;;;;;;5070865;28;20095;-61
2023/05/23 14:30:25;;;;;;;8.82;4.90;;;;;;;;;;5088392;28;20020;-61
2023/05/23 14:32:52;;;;;;;7.68;5.07;;;;;;;;;;5088657;28;20034;-61
2023/05/23 14:35:18;;;;;;;5.78;5.05;;;;;;;;;;5088739;28;20027;-61
2023/05/23 14:37:44;;;;;;;6.30;4.97;;;;;;;;;;5088811;28;20040;-61
2023/05/23 14:40:09;;;;;;;5.82;4.55;;;;;;;;;;5088310;28;20123;-62
2023/05/23 14:42:35;;;;;;;9.88;4.82;;;;;;;;;;5069789;28;20032;-62